1966 FRANCESCA (1966249N16252)


On this page: IBTrACS data - Map and Plots - Positions - Intensities - Original source data

Summary

Start Sep 6
End Sep 16
Basin EP
LMI 75 kt
Sources hurdat_epa
jtwc_ep
td9636
atcf
ds824_ep
In WMO? Yes
Previous storm 1966 DORIS (WP)
Previous in basin 1966 DORIS (WP)
Concurrent storms 1966 FAITH (NA)
1966 CORA (WP)
1966 20W (WP)
1966 GRETA (NA)
1966 09B (NI)
1966 DORIS (WP)
1966 FRANCESCA (EP)
1966 GRETCHEN (EP)
1966 FLOSSIE (WP)
1966 ELSIE (WP)
1966 HELGA (EP)
1966 MISSING (WP)
1966 IONE (EP)
1966 22W (WP)
1966 #22 (EP)
1966 GRETCHEN (EP)
1966 GRACE (WP)
1966 JOYCE (EP)
1966 HELEN (WP)
Next in basin 1966 GRETCHEN (EP)
Next storm 1966 GRETCHEN (EP)

top of page IBTrACS Data: File Access

No storm imagery available

top of page Plots:

Map of storm track will not appear if FTP is down
Time series of cyclone Maximum Sustained Wind will not appear if FTP is down
Time series of cyclone Minimum Central Pressure will not appear if FTP is down

top of page Track Data:Position

hurdat_epa jtwc_ep td9636 atcf ds824_ep
Date Lat Lon Lat Lon Lat Lon Lat Lon Lat Lon
1966-09-06 00:00:00 15.7 -107.7 15.7 -107.7 15.7 -107.7 15.7 -107.7 15.7 -107.7
1966-09-06 06:00:00 16.1 -108.7 16.1 -108.7 16.1 -108.7 16.1 -108.7 16.1 -108.7
1966-09-06 12:00:00 16.4 -109.7 16.4 -109.7 16.4 -109.7 16.4 -109.7 16.4 -109.7
1966-09-06 18:00:00 16.7 -110.6 16.7 -110.6 16.7 -110.7 16.7 -110.6 16.7 -110.6
1966-09-07 00:00:00 16.9 -111.6 16.9 -111.6 16.9 -111.6 16.9 -111.6 16.9 -111.6
1966-09-07 06:00:00 17.1 -112.5 17.1 -112.5 17.1 -112.5 17.1 -112.5 17.1 -112.5
1966-09-07 12:00:00 17.3 -113.5 17.3 -113.5 17.3 -113.5 17.3 -113.5 17.3 -113.5
1966-09-07 18:00:00 17.4 -114.5 17.4 -114.5 17.3 -114.6 17.4 -114.5 17.4 -114.5
1966-09-08 00:00:00 17.4 -115.6 17.4 -115.6 17.4 -115.6 17.4 -115.6 17.4 -115.6
1966-09-08 06:00:00 17.7 -116.2 17.7 -116.2 17.7 -116.2 17.7 -116.2 17.7 -116.2
1966-09-08 12:00:00 17.9 -116.9 17.9 -116.9 17.9 -116.9 17.9 -116.9 17.9 -116.9
1966-09-08 18:00:00 17.9 -118.3 17.9 -118.3 17.9 -118.1 17.9 -118.3 17.9 -118.3
1966-09-09 00:00:00 17.8 -119.6 17.8 -119.6 17.8 -119.6 17.8 -119.6 17.8 -119.6
1966-09-09 06:00:00 17.7 -121.2 17.7 -121.2 17.7 -121.2 17.7 -121.2 17.7 -121.2
1966-09-09 12:00:00 17.5 -122.7 17.5 -122.7 17.5 -122.7 17.5 -122.7 17.5 -122.7
1966-09-09 18:00:00 17.1 -124.0 17.1 -124.0 17.1 -124.0 17.1 -124.0 17.1 -124.0
1966-09-10 00:00:00 16.6 -125.2 16.6 -125.2 16.6 -125.2 16.6 -125.2 16.6 -125.2
1966-09-10 06:00:00 16.4 -126.2 16.4 -126.2 16.4 -126.2 16.4 -126.2 16.4 -126.2
1966-09-10 12:00:00 16.2 -127.1 16.2 -127.1 16.2 -127.1 16.2 -127.1 16.2 -127.1
1966-09-10 18:00:00 15.8 -128.0 15.8 -128.0 15.8 -128.1 15.8 -128.0 15.8 -128.0
1966-09-11 00:00:00 15.2 -128.8 15.2 -128.8 15.2 -128.8 15.2 -128.8 15.2 -128.8
1966-09-11 06:00:00 14.6 -129.0 14.6 -129.0 14.6 -129.1 14.6 -129.0 14.6 -129.0
1966-09-11 12:00:00 14.1 -129.2 14.1 -129.2 14.1 -129.2 14.1 -129.2 14.1 -129.2
1966-09-11 18:00:00 13.8 -129.6 13.8 -129.6 13.8 -129.6 13.8 -129.6 13.8 -129.6
1966-09-12 00:00:00 13.9 -130.1 13.9 -130.1 13.9 -130.1 13.9 -130.1 13.9 -130.1
hurdat_epa jtwc_ep td9636 atcf ds824_ep
1966-09-12 06:00:00 14.4 -130.7 14.4 -130.7 14.3 -130.7 14.4 -130.7 14.4 -130.7
1966-09-12 12:00:00 15.0 -131.2 15.0 -131.2 15.0 -131.2 15.0 -131.2 15.0 -131.2
1966-09-12 18:00:00 15.7 -131.6 15.7 -131.6 15.6 -131.6 15.7 -131.6 15.7 -131.6
1966-09-13 00:00:00 16.4 -131.8 16.4 -131.8 16.4 -131.8 16.4 -131.8 16.4 -131.8
1966-09-13 06:00:00 17.5 -131.9 17.5 -131.9 17.5 -131.8 17.5 -131.9 17.5 -131.9
1966-09-13 12:00:00 18.5 -131.6 18.5 -131.6 18.5 -131.6 18.5 -131.6 18.5 -131.6
1966-09-13 18:00:00 19.1 -131.1 19.1 -131.1 19.1 -131.2 19.1 -131.1 19.1 -131.1
1966-09-14 00:00:00 19.6 -130.5 19.6 -130.5 19.6 -130.5 19.6 -130.5 19.6 -130.5
1966-09-14 06:00:00 20.3 -129.7 20.3 -129.7 20.3 -129.7 20.3 -129.7 20.3 -129.7
1966-09-14 12:00:00 20.9 -128.8 20.9 -128.8 20.9 -128.8 20.9 -128.8 20.9 -128.8
1966-09-14 18:00:00 21.2 -127.9 21.2 -127.9 21.2 -127.8 21.2 -127.9 21.2 -127.9
1966-09-15 00:00:00 21.4 -126.9 21.4 -126.9 21.4 -126.9 21.4 -126.9 21.4 -126.9
1966-09-15 06:00:00 21.5 -126.5 21.5 -126.5 21.5 -126.4 21.5 -126.5 21.5 -126.5
1966-09-15 12:00:00 21.5 -126.2 21.5 -126.2 21.5 -126.2 21.5 -126.2 21.5 -126.2
1966-09-15 18:00:00 21.5 -126.0 21.5 -126.0 21.5 -125.9 21.5 -126.0 21.5 -126.0
1966-09-16 00:00:00 21.5 -125.7 21.5 -125.7 21.5 -125.7 21.5 -125.7 21.5 -125.7
1966-09-16 06:00:00 21.5 -125.4 21.5 -125.4 21.5 -125.4 21.5 -125.4 21.5 -125.4
1966-09-16 12:00:00 21.5 -125.1 21.5 -125.1 21.5 -125.1 21.5 -125.1 21.5 -125.1

top of pageTrack Data:Intensity

hurdat_epa jtwc_ep td9636 atcf ds824_ep
Date Wind Pres Wind Pres Wind Pres Wind Pres Wind Pres
1966-09-06 00:00:00 25. 25. 25. 25.
1966-09-06 06:00:00 25. 25. 25. 25.
1966-09-06 12:00:00 45. 45. 45. 45.
1966-09-06 18:00:00 75. 75. 75. 75.
1966-09-07 00:00:00 75. 75. 75. 75.
1966-09-07 06:00:00 75. 75. 75. 75.
1966-09-07 12:00:00 75. 75. 75. 75.
1966-09-07 18:00:00 75. 75. 75. 75.
1966-09-08 00:00:00 75. 75. 75. 75.
1966-09-08 06:00:00 75. 75. 75. 75.
1966-09-08 12:00:00 75. 75. 75. 75.
1966-09-08 18:00:00 75. 75. 75. 75.
1966-09-09 00:00:00 75. 75. 75. 75.
1966-09-09 06:00:00 75. 75. 75. 75.
1966-09-09 12:00:00 75. 75. 75. 75.
1966-09-09 18:00:00 45. 45. 45. 45.
1966-09-10 00:00:00 45. 45. 45. 45.
1966-09-10 06:00:00 45. 45. 45. 45.
1966-09-10 12:00:00 45. 45. 45. 45.
1966-09-10 18:00:00 45. 45. 45. 45.
1966-09-11 00:00:00 45. 45. 45. 45.
1966-09-11 06:00:00 45. 45. 45. 45.
1966-09-11 12:00:00 45. 45. 45. 45.
1966-09-11 18:00:00 45. 45. 45. 45.
1966-09-12 00:00:00 45. 45. 45. 45.
hurdat_epa jtwc_ep td9636 atcf ds824_ep
1966-09-12 06:00:00 45. 45. 45. 45.
1966-09-12 12:00:00 45. 45. 45. 45.
1966-09-12 18:00:00 45. 45. 45. 45.
1966-09-13 00:00:00 45. 45. 45. 45.
1966-09-13 06:00:00 45. 45. 45. 45.
1966-09-13 12:00:00 45. 45. 45. 45.
1966-09-13 18:00:00 45. 45. 45. 45.
1966-09-14 00:00:00 45. 45. 45. 45.
1966-09-14 06:00:00 45. 45. 45. 45.
1966-09-14 12:00:00 45. 45. 45. 45.
1966-09-14 18:00:00 45. 45. 45. 45.
1966-09-15 00:00:00 45. 45. 45. 45.
1966-09-15 06:00:00 25. 25. 25. 25.
1966-09-15 12:00:00 25. 25. 25. 25.
1966-09-15 18:00:00 25. 25. 25. 25.
1966-09-16 00:00:00 25. 25. 25. 25.
1966-09-16 06:00:00 25. 25. 25. 25.
1966-09-16 12:00:00 25. 25. 25. 25.

top of page Links to source data

Source Source file Format
hurdat_epa tracks1949to2011_epa.html:157:FRANCESCA HURDAT
jtwc_ep bep061966.txt ATCF
td9636 cons_worldwide_trop_cyclone_18710101-19891231-002:Line=1427 TD 9636
atcf bep061966.dat ATCF
ds824_ep e_npac.dat:157:FRANCESCA HURDAT